logo
Search for airport 
image banner adimage banner adimage banner ad
image banner ad

YXCO - Cooktown Health Service

Located in Cooktown, Australia

ICAO - , IATA -

Data provided by Airmate  

General information

Coordinates: S15°28'40" E145°15'1"
Elevation is 109 feet MSL.
Magnetic variation is 6° East
View others Airports in Queensland

Operational data

Special qualification required
Current time UTC:
Current local time:
Weather at : - ( 0 km )
METAR: USTR 231736Z 01004MPS 340V040 9999 BKN010 OVC014 15/13 Q1006 R03/090065 R30/090065 TEMPO 2100 -RA BKN005 OVC020
View NOTAMs / SUP AIP / TFR affecting this airport [VIEW]
Communications frequencies: [VIEW]

Runways:

Airport contact information

Address: Cooktown Australia

Satellite view of YXCO